createdAt,value
2019-03-18T00:03:51.926Z,4.40
2019-03-18T00:21:04.540Z,4.20
2019-03-18T00:26:20.139Z,4.10
2019-03-18T00:31:20.561Z,4.00
2019-03-18T00:36:20.662Z,4.00
2019-03-18T00:41:21.577Z,4.00
2019-03-18T00:46:27.241Z,4.00
2019-03-18T00:51:35.180Z,3.90
2019-03-18T00:56:34.809Z,3.80
2019-03-18T01:01:39.928Z,3.80
2019-03-18T01:06:45.690Z,3.80
2019-03-18T01:12:06.893Z,3.80
2019-03-18T01:17:40.932Z,3.80
2019-03-18T01:23:01.910Z,3.80
2019-03-18T01:28:22.792Z,3.70
2019-03-18T01:33:35.152Z,3.70
2019-03-18T01:38:39.031Z,3.60
2019-03-18T01:43:48.277Z,3.50
2019-03-18T01:48:57.475Z,3.50
2019-03-18T01:54:04.828Z,3.50
2019-03-18T01:59:06.264Z,3.50
2019-03-18T02:04:08.388Z,3.60
2019-03-18T02:09:11.130Z,3.60
2019-03-18T02:14:39.179Z,3.60
2019-03-18T02:19:48.719Z,3.60
2019-03-18T02:24:57.910Z,3.60
2019-03-18T02:30:15.895Z,3.70
2019-03-18T02:35:19.406Z,3.80
2019-03-18T02:40:34.818Z,3.90
2019-03-18T02:45:42.403Z,3.90
2019-03-18T02:50:38.243Z,3.80
2019-03-18T02:55:41.012Z,3.80
2019-03-18T03:00:54.386Z,3.70
2019-03-18T03:06:05.855Z,3.70
2019-03-18T03:11:21.316Z,3.70
2019-03-18T03:16:43.015Z,3.60
2019-03-18T03:21:31.238Z,3.60
2019-03-18T03:26:31.031Z,3.60
2019-03-18T03:31:50.034Z,3.60
2019-03-18T03:49:12.324Z,3.80
2019-03-18T03:54:14.785Z,3.70
2019-03-18T03:59:40.321Z,3.70
2019-03-18T04:04:45.086Z,3.70
2019-03-18T04:21:57.385Z,3.40
2019-03-18T04:27:06.262Z,3.30
2019-03-18T04:32:08.451Z,3.30
2019-03-18T04:37:32.464Z,3.40
2019-03-18T04:42:53.343Z,3.40
2019-03-18T04:48:28.162Z,3.50
2019-03-18T04:53:50.578Z,3.50
2019-03-18T04:58:57.405Z,3.50
2019-03-18T05:04:22.035Z,3.40
2019-03-18T05:09:42.926Z,3.40
2019-03-18T05:14:41.407Z,3.50
2019-03-18T05:26:08.013Z,3.70
2019-03-18T05:31:25.589Z,3.80
2019-03-18T05:36:33.279Z,3.80
2019-03-18T05:42:15.374Z,3.80
2019-03-18T05:47:53.200Z,3.80
2019-03-18T05:53:04.134Z,3.80
2019-03-18T05:58:39.582Z,3.80
2019-03-18T06:03:48.532Z,3.80
2019-03-18T06:08:47.198Z,3.80
2019-03-18T06:13:49.304Z,3.80
2019-03-18T06:18:48.207Z,3.60
2019-03-18T06:23:44.182Z,3.50
2019-03-18T06:28:40.076Z,3.50
2019-03-18T06:33:53.229Z,3.40
2019-03-18T06:40:05.722Z,3.40
2019-03-18T06:46:33.475Z,3.30
2019-03-18T06:51:42.225Z,3.40
2019-03-18T06:57:31.403Z,3.60
2019-03-18T07:02:42.694Z,3.90
2019-03-18T07:07:55.420Z,4.00
2019-03-18T07:14:07.263Z,4.10
2019-03-18T07:19:19.755Z,4.10
2019-03-18T07:24:46.406Z,4.10
2019-03-18T07:30:38.965Z,4.10
2019-03-18T08:32:15.794Z,4.90
2019-03-18T08:43:46.486Z,6.00
2019-03-18T08:55:49.510Z,6.90
2019-03-18T09:01:55.219Z,6.90
2019-03-18T09:07:06.447Z,7.00
2019-03-18T09:32:36.950Z,7.30
2019-03-18T09:37:32.796Z,6.70
2019-03-18T09:42:28.809Z,6.60
2019-03-18T09:47:26.806Z,6.50
2019-03-18T09:52:29.526Z,6.40
2019-03-18T09:57:34.238Z,6.50
2019-03-18T10:02:30.018Z,7.00
2019-03-18T10:13:52.173Z,8.10
2019-03-18T10:19:01.947Z,8.40
2019-03-18T10:30:08.173Z,9.10
2019-03-18T10:35:04.231Z,9.50
2019-03-18T10:40:00.346Z,9.40
2019-03-18T10:45:15.601Z,8.50
2019-03-18T10:50:11.886Z,8.00
2019-03-18T10:55:09.788Z,8.00
2019-03-18T11:00:06.560Z,8.70
2019-03-18T11:05:02.499Z,9.30
2019-03-18T11:15:48.598Z,9.00
2019-03-18T11:28:09.049Z,7.80
2019-03-18T11:33:05.277Z,7.40
2019-03-18T11:38:01.682Z,7.80
2019-03-18T11:43:16.030Z,7.80
2019-03-18T11:48:16.393Z,7.70
2019-03-18T11:53:14.628Z,7.50
2019-03-18T12:04:22.349Z,7.20
2019-03-18T12:09:18.244Z,7.40
2019-03-18T12:14:14.465Z,7.50
2019-03-18T12:19:13.876Z,7.80
2019-03-18T12:24:11.917Z,7.80
2019-03-18T12:29:08.260Z,7.80
2019-03-18T12:34:04.386Z,7.70
2019-03-18T12:39:02.358Z,7.60
2019-03-18T12:43:58.491Z,7.40
2019-03-18T12:48:54.499Z,7.50
2019-03-18T12:53:50.507Z,7.80
2019-03-18T12:58:46.612Z,7.90
2019-03-18T13:03:42.536Z,8.10
2019-03-18T13:08:38.482Z,8.20
2019-03-18T13:13:40.596Z,8.10
2019-03-18T13:18:37.603Z,8.20
2019-03-18T13:23:35.058Z,8.30
2019-03-18T13:28:31.081Z,8.50
2019-03-18T13:33:27.122Z,8.60
2019-03-18T13:38:23.236Z,8.60
2019-03-18T13:43:21.261Z,8.50
2019-03-18T13:48:20.602Z,8.80
2019-03-18T13:53:27.166Z,8.70
2019-03-18T13:58:24.376Z,8.50
2019-03-18T14:03:28.679Z,8.10
2019-03-18T14:08:26.549Z,7.90
2019-03-18T14:13:23.204Z,7.60
2019-03-18T14:18:23.173Z,7.50
2019-03-18T14:23:21.690Z,6.80
2019-03-18T14:28:19.341Z,6.20
2019-03-18T14:33:18.166Z,6.10
2019-03-18T14:38:15.266Z,6.20
2019-03-18T14:43:11.096Z,6.40
2019-03-18T14:48:16.616Z,6.80
2019-03-18T14:53:12.392Z,7.00
2019-03-18T14:58:08.378Z,6.90
2019-03-18T15:03:04.650Z,6.70
2019-03-18T15:08:00.473Z,7.10
2019-03-18T15:12:57.337Z,7.10
2019-03-18T15:17:53.558Z,7.10
2019-03-18T15:23:00.058Z,7.10
2019-03-18T15:27:59.957Z,7.30
2019-03-18T15:33:00.615Z,7.40
2019-03-18T15:37:57.435Z,7.20
2019-03-18T15:42:57.265Z,7.10
2019-03-18T15:47:57.239Z,7.10
2019-03-18T15:53:00.470Z,7.20
2019-03-18T15:57:56.599Z,7.50
2019-03-18T16:03:07.675Z,7.70
2019-03-18T16:08:07.264Z,7.90
2019-03-18T16:13:12.249Z,7.80
2019-03-18T16:18:12.572Z,7.50
2019-03-18T16:23:17.628Z,7.20
2019-03-18T16:28:21.589Z,6.90
2019-03-18T16:33:18.838Z,6.70
2019-03-18T16:38:15.706Z,6.50
2019-03-18T16:43:23.198Z,6.40
2019-03-18T16:48:20.606Z,6.30
2019-03-18T16:53:42.139Z,6.30
2019-03-18T16:58:53.979Z,6.20
2019-03-18T17:04:21.933Z,6.30
2019-03-18T17:09:17.944Z,6.20
2019-03-18T17:14:13.739Z,6.00
2019-03-18T17:19:13.831Z,5.60
2019-03-18T17:24:28.569Z,5.20
2019-03-18T17:29:46.492Z,4.90
2019-03-18T17:34:49.880Z,4.70
2019-03-18T17:40:02.403Z,4.80
2019-03-18T17:45:43.643Z,4.80
2019-03-18T17:50:37.078Z,4.90
2019-03-18T17:55:33.246Z,4.70
2019-03-18T18:00:34.774Z,4.60
2019-03-18T18:05:31.380Z,4.40
2019-03-18T18:10:27.473Z,4.30
2019-03-18T18:15:23.568Z,4.30
2019-03-18T18:20:19.677Z,4.30
2019-03-18T18:25:15.862Z,4.30
2019-03-18T18:30:12.323Z,4.30
2019-03-18T18:35:11.554Z,4.20
2019-03-18T18:40:12.898Z,4.20
2019-03-18T18:45:16.700Z,4.20
2019-03-18T18:56:37.200Z,4.20
2019-03-18T19:01:38.875Z,3.90
2019-03-18T19:06:37.024Z,4.00
2019-03-18T19:11:33.189Z,4.00
2019-03-18T19:16:39.424Z,3.90
2019-03-18T19:21:43.603Z,3.90
2019-03-18T19:26:51.718Z,3.90
2019-03-18T19:31:50.854Z,3.90
2019-03-18T19:36:49.684Z,3.90
2019-03-18T19:41:48.807Z,4.00
2019-03-18T19:46:48.041Z,3.80
2019-03-18T19:51:45.369Z,3.80
2019-03-18T19:56:47.779Z,3.70
2019-03-18T20:01:48.794Z,3.60
2019-03-18T20:06:56.344Z,3.50
2019-03-18T20:12:01.895Z,3.30
2019-03-18T20:17:52.750Z,3.40
2019-03-18T20:28:57.595Z,3.30
2019-03-18T20:35:19.443Z,3.30
2019-03-18T20:40:21.044Z,3.00
2019-03-18T20:45:19.507Z,3.00
2019-03-18T20:50:16.778Z,2.80
2019-03-18T20:55:14.503Z,2.80
2019-03-18T21:00:14.963Z,2.90
2019-03-18T21:05:11.053Z,2.80
2019-03-18T21:10:07.745Z,2.80
2019-03-18T21:15:03.640Z,2.80
2019-03-18T21:19:59.964Z,2.70
2019-03-18T21:30:51.689Z,2.70
2019-03-18T21:41:51.685Z,2.50
2019-03-18T21:47:15.689Z,2.50
2019-03-18T21:52:48.904Z,2.60
2019-03-18T21:58:19.449Z,2.30
2019-03-18T22:03:53.718Z,2.30
2019-03-18T22:09:29.411Z,2.30
2019-03-18T22:14:21.266Z,2.30
2019-03-18T22:19:17.253Z,2.10
2019-03-18T22:24:14.811Z,2.00
2019-03-18T22:29:10.730Z,2.00
2019-03-18T22:41:23.193Z,1.60
2019-03-18T22:46:40.638Z,1.70
2019-03-18T22:51:50.808Z,1.80
2019-03-18T22:57:15.814Z,1.70
2019-03-18T23:02:45.789Z,1.80
2019-03-18T23:08:33.499Z,1.80
2019-03-18T23:13:58.198Z,1.70
2019-03-18T23:19:28.531Z,1.70
2019-03-18T23:25:06.668Z,1.50
2019-03-18T23:29:55.946Z,1.60
2019-03-18T23:34:52.245Z,1.70
2019-03-18T23:39:48.050Z,1.60
2019-03-18T23:44:44.454Z,1.40
2019-03-18T23:50:06.474Z,1.30
2019-03-18T23:55:52.446Z,1.50
